AGGH/HIR METAR and TAF weather

Enter ICAO airport designator
Station Type Date Time Source
AGGH METAR 2019/10/18 07:00 UTC NOAA

AGGH 180700Z 09009KT 9999 FEW019 FEW020CB 30/24 Q1010


Station Type Date Time Source
AGGH Decoded METAR 2019/10/18 07:00 UTC NOAA

Honiara / Henderson, Solomon Islands (AGGH) 09-25S 160-03E 9M
Oct 18, 2019 - 03:00 AM EDT / 2019.10.18 0700 UTC
Wind: from the E (090 degrees) at 10 MPH (9 KT):0
Visibility: greater than 7 mile(s):0
Sky conditions: mostly clear
Weather: Cumulonimbus clouds observed
Temperature: 86 F (30 C)
Heat index: 95.0 F (35.0 C):1
Dew Point: 75 F (24 C)
Relative Humidity: 70%
Pressure (altimeter): 29.83 in. Hg (1010 hPa)
ob: AGGH 180700Z 09009KT 9999 FEW019 FEW020CB 30/24 Q1010
cycle: 7

Station Type Date Time Source
AGGH TAF 2019/10/17 18:56 UTC NOAA

TAF AGGH 171650Z 1718/1818 07012KT 9999 FEW016 SCT027 T 23 26 31 32 Q 1009 1011 1011 1009

Example: see airport list